Time;durP1;ratioP1;P1;durP2;ratioP2;P2;SDS_P1;SDS_P2;PMS_P1;PMS_P2;Temp;Humidity;BMP_temperature;BMP_pressure;BME280_temperature;BME280_humidity;BME280_pressure;Samples;Min_cycle;Max_cycle;Signal;HPM_P1;HPM_P2
2023/06/01 00:00:49;;;;;;;5.73;2.43;;;;;;;14.86;58.56;100519.74;1427477;91;21449;-78
2023/06/01 00:03:15;;;;;;;5.70;2.67;;;;;;;14.81;59.07;100516.77;1430332;90;21692;-79
2023/06/01 00:05:42;;;;;;;7.40;2.87;;;;;;;14.79;58.78;100511.30;1425570;91;22844;-78
2023/06/01 00:08:08;;;;;;;8.40;2.57;;;;;;;14.78;58.79;100513.62;1429910;91;21493;-79
2023/06/01 00:10:34;;;;;;;7.53;3.00;;;;;;;14.78;58.87;100510.95;1427494;91;21441;-78
2023/06/01 00:13:01;;;;;;;9.77;2.10;;;;;;;14.78;58.71;100520.28;1428011;90;21448;-77
2023/06/01 00:15:27;;;;;;;5.63;2.77;;;;;;;14.73;58.58;100519.96;1429928;90;21529;-78
2023/06/01 00:17:53;;;;;;;11.37;2.97;;;;;;;14.66;59.31;100523.31;1428817;91;22454;-77
2023/06/01 00:20:19;;;;;;;5.07;2.53;;;;;;;14.59;59.46;100514.87;1430358;91;21582;-78
2023/06/01 00:22:46;;;;;;;5.63;2.50;;;;;;;14.57;59.28;100515.53;1425841;90;21502;-78
2023/06/01 00:25:16;;;;;;;5.30;2.30;;;;;;;14.55;59.81;100506.88;1428197;90;21516;-79
2023/06/01 00:27:43;;;;;;;4.97;2.83;;;;;;;14.52;60.72;100512.55;1404517;93;21521;-78
2023/06/01 00:30:11;;;;;;;10.37;2.87;;;;;;;14.50;60.82;100511.84;1409838;93;21494;-79
2023/06/01 00:32:39;;;;;;;8.33;2.27;;;;;;;14.53;60.72;100509.73;1337950;93;21494;-78
2023/06/01 00:35:05;;;;;;;11.07;2.90;;;;;;;14.56;60.06;100510.72;1355548;92;21420;-78
2023/06/01 00:37:32;;;;;;;5.90;3.13;;;;;;;14.57;59.63;100509.70;1339375;93;21346;-79
2023/06/01 00:39:58;;;;;;;8.23;2.83;;;;;;;14.55;59.70;100510.88;1345174;93;22393;-79
2023/06/01 00:42:24;;;;;;;6.93;3.83;;;;;;;14.53;59.49;100515.53;1486249;93;21422;-78
2023/06/01 00:44:50;;;;;;;5.13;2.30;;;;;;;14.49;59.63;100508.36;1339721;93;21383;-79
2023/06/01 00:47:16;;;;;;;10.20;2.63;;;;;;;14.44;59.83;100510.70;1339968;92;22420;-79
2023/06/01 00:49:43;;;;;;;6.43;2.97;;;;;;;14.42;60.21;100512.22;1482214;93;21395;-78
2023/06/01 00:52:09;;;;;;;6.90;3.00;;;;;;;14.41;60.47;100511.89;1339739;93;21413;-78
2023/06/01 00:54:36;;;;;;;7.30;2.93;;;;;;;14.38;60.95;100510.88;1344598;92;21487;-79
2023/06/01 00:57:02;;;;;;;6.13;3.47;;;;;;;14.36;60.63;100510.23;1326858;94;21361;-79
2023/06/01 00:59:28;;;;;;;5.60;2.97;;;;;;;14.33;61.28;100508.42;1361132;93;21642;-79
2023/06/01 01:01:54;;;;;;;8.67;2.93;;;;;;;14.28;61.21;100510.25;1409059;93;21493;-78
2023/06/01 01:04:25;;;;;;;5.13;2.63;;;;;;;14.25;61.89;100513.25;1409374;93;21678;-78
2023/06/01 01:07:00;;;;;;;17.23;2.83;;;;;;;14.20;62.17;100518.25;1410553;93;22183;-76
2023/06/01 01:09:44;;;;;;;9.40;3.13;;;;;;;14.16;62.63;100512.44;1410139;92;21513;-77
2023/06/01 01:12:36;;;;;;;10.43;3.10;;;;;;;14.14;62.79;100512.27;1402208;92;21685;-77
2023/06/01 01:15:23;;;;;;;11.80;2.77;;;;;;;14.11;62.89;100516.09;1406739;93;22443;-77
2023/06/01 01:17:53;;;;;;;5.13;2.83;;;;;;;14.10;62.47;100513.12;1401713;93;22418;-77
2023/06/01 01:20:30;;;;;;;7.45;2.95;;;;;;;14.09;62.54;100510.61;1408257;92;21516;-76
2023/06/01 01:23:38;;;;;;;7.30;2.73;;;;;;;14.08;62.58;100511.62;1408776;92;21506;-77
2023/06/01 01:26:15;;;;;;;7.03;2.87;;;;;;;14.04;62.89;100511.61;1413871;92;21464;-78
2023/06/01 01:28:55;;;;;;;4.70;2.40;;;;;;;13.96;63.60;100505.31;1408705;92;22456;-77
2023/06/01 01:31:26;;;;;;;9.38;3.00;;;;;;;13.86;63.96;100503.30;1412817;93;21457;-77
2023/06/01 01:33:57;;;;;;;11.30;3.35;;;;;;;13.75;63.30;100504.97;1406756;92;21716;-77
2023/06/01 01:36:24;;;;;;;8.57;2.70;;;;;;;13.67;63.71;100499.67;1404792;93;21686;-77
2023/06/01 01:38:51;;;;;;;10.67;3.07;;;;;;;13.61;64.40;100498.98;1406202;92;22449;-78
2023/06/01 01:41:17;;;;;;;12.67;2.73;;;;;;;13.55;64.86;100497.81;1408433;93;21524;-78
2023/06/01 01:43:44;;;;;;;5.40;3.00;;;;;;;13.52;65.17;100498.14;1409262;93;21508;-79
2023/06/01 01:46:27;;;;;;;5.73;2.50;;;;;;;13.51;65.42;100503.96;1406934;92;22536;-78
2023/06/01 01:49:17;;;;;;;9.80;3.60;;;;;;;13.47;66.02;100501.31;1486038;92;21641;-78
2023/06/01 01:51:49;;;;;;;6.53;3.10;;;;;;;13.44;65.70;100505.63;1438215;92;21714;-78
2023/06/01 01:54:17;;;;;;;16.03;4.13;;;;;;;13.40;65.56;100509.59;1337717;92;21563;-78
2023/06/01 01:56:45;;;;;;;4.80;2.70;;;;;;;13.37;66.44;100511.25;1338275;92;21509;-78
2023/06/01 01:59:13;;;;;;;6.10;3.30;;;;;;;13.34;67.19;100510.76;1342590;92;21487;-78
2023/06/01 02:01:44;;;;;;;8.13;3.93;;;;;;;13.31;67.04;100509.25;1338366;93;21376;-78
2023/06/01 02:04:11;;;;;;;6.63;2.77;;;;;;;13.25;67.19;100506.75;1486233;92;21369;-77
2023/06/01 02:06:37;;;;;;;9.87;2.77;;;;;;;13.18;67.72;100512.87;1344924;92;22582;-77
2023/06/01 02:09:07;;;;;;;6.13;2.57;;;;;;;13.12;68.15;100508.17;1339367;92;21546;-78
2023/06/01 02:11:35;;;;;;;3.00;2.47;;;;;;;13.08;68.49;100512.48;1335904;92;21420;-79
2023/06/01 02:14:01;;;;;;;10.13;2.30;;;;;;;13.06;70.51;100514.50;1343208;93;21442;-79
2023/06/01 02:16:27;;;;;;;6.50;2.70;;;;;;;13.07;70.74;100515.33;1471109;93;21347;-78
2023/06/01 02:18:53;;;;;;;5.67;2.57;;;;;;;13.07;70.87;100515.33;1339558;92;21539;-78
2023/06/01 02:21:21;;;;;;;6.10;3.40;;;;;;;13.02;72.40;100511.81;1339702;93;21390;-78
2023/06/01 02:23:47;;;;;;;7.37;3.23;;;;;;;12.95;71.58;100510.80;1338487;93;21384;-78
2023/06/01 02:26:13;;;;;;;10.73;3.73;;;;;;;12.91;70.99;100510.77;1340020;92;21398;-79
2023/06/01 02:28:40;;;;;;;6.70;3.27;;;;;;;12.85;75.11;100510.92;1346185;92;22271;-78
2023/06/01 02:31:09;;;;;;;4.73;2.73;;;;;;;12.78;74.14;100506.42;1343920;92;21420;-77
2023/06/01 02:33:35;;;;;;;3.87;2.60;;;;;;;12.69;73.66;100503.38;1355737;92;21479;-77
2023/06/01 02:36:05;;;;;;;15.33;3.37;;;;;;;12.62;74.07;100501.86;1339507;92;21444;-76
2023/06/01 02:38:30;;;;;;;7.33;2.67;;;;;;;12.62;73.68;100496.55;1342051;93;21638;-78
2023/06/01 02:40:56;;;;;;;5.63;2.63;;;;;;;12.64;74.20;100494.08;1349219;93;21456;-77
2023/06/01 02:43:22;;;;;;;8.37;2.53;;;;;;;12.70;73.33;100495.27;1404440;93;21499;-77
2023/06/01 02:45:48;;;;;;;7.20;4.03;;;;;;;12.73;73.76;100501.58;1408510;92;21636;-77
2023/06/01 02:48:15;;;;;;;5.00;3.17;;;;;;;12.76;72.88;100504.41;1412897;93;22470;-76
2023/06/01 02:50:42;;;;;;;4.33;2.50;;;;;;;12.74;73.53;100503.73;1409764;92;21612;-79
2023/06/01 02:53:08;;;;;;;11.17;3.60;;;;;;;12.71;72.96;100508.86;1403420;93;21682;-78
2023/06/01 02:55:35;;;;;;;5.77;2.83;;;;;;;12.68;72.48;100511.02;1406783;93;22594;-78
2023/06/01 02:58:01;;;;;;;3.87;2.37;;;;;;;12.67;73.53;100514.67;1410649;93;21472;-78
2023/06/01 03:00:27;;;;;;;6.20;2.93;;;;;;;12.65;73.49;100513.48;1404425;93;22025;-78
2023/06/01 03:02:54;;;;;;;7.10;2.33;;;;;;;12.65;73.66;100513.48;1410317;92;22330;-78
2023/06/01 03:05:21;;;;;;;6.47;2.83;;;;;;;12.68;75.23;100516.33;1408769;93;21464;-79
2023/06/01 03:07:47;;;;;;;7.87;2.60;;;;;;;12.70;73.50;100519.66;1409191;93;21693;-78
2023/06/01 03:10:14;;;;;;;6.07;3.00;;;;;;;12.74;72.92;100515.69;1409966;92;21552;-79
2023/06/01 03:12:41;;;;;;;8.73;3.00;;;;;;;12.77;74.25;100524.16;1405214;93;21457;-78
2023/06/01 03:15:07;;;;;;;7.70;3.20;;;;;;;12.81;73.20;100516.73;1394639;93;22426;-77
2023/06/01 03:17:37;;;;;;;7.17;3.23;;;;;;;12.83;72.70;100516.05;1403866;93;21493;-77
2023/06/01 03:20:14;;;;;;;11.50;4.43;;;;;;;12.85;72.86;100515.40;1407123;92;21529;-77
2023/06/01 03:22:39;;;;;;;6.83;2.93;;;;;;;12.85;73.63;100520.22;1404648;93;22377;-78
2023/06/01 03:25:09;;;;;;;6.03;2.90;;;;;;;12.85;73.37;100514.90;1410583;93;21428;-79
2023/06/01 03:27:39;;;;;;;4.97;3.40;;;;;;;12.83;73.02;100514.72;1404277;92;21638;-78
2023/06/01 03:30:10;;;;;;;5.42;3.00;;;;;;;12.78;72.79;100515.72;1405027;92;22476;-78
2023/06/01 03:32:43;;;;;;;6.43;3.33;;;;;;;12.79;72.44;100514.22;1337083;92;21518;-79
2023/06/01 03:37:46;;;;;;;6.97;3.27;;;;;;;12.90;72.56;100510.45;1504438;85;28682;-78
2023/06/01 03:40:14;;;;;;;7.43;3.20;;;;;;;12.92;72.85;100511.59;1483489;86;21478;-76
2023/06/01 03:42:43;;;;;;;4.20;2.60;;;;;;;12.98;72.29;100508.33;1483610;86;21442;-76
2023/06/01 03:45:11;;;;;;;10.90;3.00;;;;;;;13.03;72.01;100509.50;1408082;87;21324;-77
2023/06/01 03:47:37;;;;;;;7.27;3.03;;;;;;;13.08;72.03;100509.83;1405923;88;21374;-77
2023/06/01 03:50:06;;;;;;;6.30;3.10;;;;;;;13.15;71.96;100511.36;1407435;88;22175;-86
2023/06/01 03:52:34;;;;;;;5.70;2.50;;;;;;;13.21;71.91;100508.55;1404813;87;21429;-85
2023/06/01 03:55:10;;;;;;;5.23;2.73;;;;;;;13.25;71.95;100508.08;1404388;88;22463;-85
2023/06/01 03:57:38;;;;;;;7.63;2.73;;;;;;;13.32;71.95;100512.23;1403895;88;21376;-83
2023/06/01 04:00:19;;;;;;;5.57;1.97;;;;;;;13.40;71.31;100508.27;1568847;88;21443;-83
2023/06/01 04:02:54;;;;;;;4.73;3.17;;;;;;;13.49;70.76;100509.11;1439370;88;21678;-85
2023/06/01 04:05:26;;;;;;;7.10;3.00;;;;;;;13.61;70.55;100509.14;1484664;88;22432;-85
2023/06/01 04:07:54;;;;;;;7.57;3.33;;;;;;;13.73;70.17;100501.66;1484978;87;21508;-85
2023/06/01 04:10:21;;;;;;;7.37;3.00;;;;;;;13.80;70.00;100501.31;1480860;88;21717;-86
2023/06/01 04:12:49;;;;;;;8.07;3.13;;;;;;;13.89;69.85;100502.14;1485196;88;21626;-87
2023/06/01 04:15:17;;;;;;;6.40;3.43;;;;;;;13.95;70.15;100501.00;1488040;88;21449;-87
2023/06/01 04:17:48;;;;;;;7.42;3.35;;;;;;;14.02;69.26;100498.48;1486230;88;21701;-88
2023/06/01 04:20:15;;;;;;;12.53;3.47;;;;;;;14.09;68.92;100497.30;1465799;88;21632;-87
2023/06/01 04:22:43;;;;;;;10.80;3.93;;;;;;;14.15;68.87;100490.80;1461828;88;21434;-86
2023/06/01 04:25:11;;;;;;;4.70;2.60;;;;;;;14.21;69.18;100486.16;1386120;89;22315;-86
2023/06/01 04:27:44;;;;;;;7.43;3.40;;;;;;;14.31;68.54;100491.27;1405286;88;21457;-87
2023/06/01 04:30:15;;;;;;;10.60;3.20;;;;;;;14.40;68.34;100494.75;1564055;88;21398;-87
2023/06/01 04:32:47;;;;;;;5.83;2.40;;;;;;;14.51;68.70;100492.23;1570026;88;21324;-89
2023/06/01 04:35:14;;;;;;;9.20;2.97;;;;;;;14.61;68.66;100493.70;1558367;88;21354;-87
2023/06/01 04:37:42;;;;;;;5.73;2.70;;;;;;;14.73;68.13;100490.18;1539680;87;21671;-88
2023/06/01 04:40:13;;;;;;;7.83;2.93;;;;;;;14.82;67.34;100493.12;1388700;89;21413;-87
2023/06/01 04:42:48;;;;;;;11.27;4.17;;;;;;;14.96;66.78;100492.05;1570340;87;21486;-88
2023/06/01 04:45:13;;;;;;;9.33;3.37;;;;;;;15.08;66.38;100486.67;1411083;87;22352;-87
2023/06/01 04:47:39;;;;;;;7.20;3.97;;;;;;;15.20;65.89;100489.26;1569987;87;21460;-86
2023/06/01 04:50:18;;;;;;;24.90;10.73;;;;;;;15.32;67.32;100483.84;1407640;88;22402;-87
2023/06/01 04:52:49;;;;;;;28.57;14.33;;;;;;;15.45;66.44;100477.08;1561568;88;22323;-88
2023/06/01 04:55:21;;;;;;;35.87;15.83;;;;;;;15.56;65.94;100477.52;1400526;88;21441;-90
2023/06/01 04:57:45;;;;;;;16.50;7.25;;;;;;;15.68;66.05;100481.95;1405026;89;21376;-86
2023/06/01 05:00:13;;;;;;;19.70;5.70;;;;;;;15.81;66.36;100479.17;1403552;87;21524;-89
2023/06/01 05:02:44;;;;;;;12.70;4.33;;;;;;;15.93;65.74;100483.05;1405256;88;21369;-88
2023/06/01 05:07:52;;;;;;;11.90;3.52;;;;;;;16.20;65.45;100474.96;1430698;90;22708;-87
2023/06/01 05:10:14;;;;;;;10.03;3.97;;;;;;;16.35;64.56;100485.65;1436968;90;22432;-88
2023/06/01 05:12:40;;;;;;;5.97;4.40;;;;;;;16.48;63.71;100473.79;1441851;90;21523;-90
2023/06/01 05:15:11;;;;;;;11.00;3.83;;;;;;;16.57;62.92;100479.87;1423766;90;21492;-89
2023/06/01 05:17:38;;;;;;;8.43;3.80;;;;;;;16.68;62.90;100479.40;1440023;90;21774;-87
2023/06/01 05:20:22;;;;;;;8.80;3.77;;;;;;;16.76;62.51;100477.14;1442317;90;22344;-85
2023/06/01 05:22:49;;;;;;;5.73;3.97;;;;;;;16.86;62.34;100479.03;1439465;90;22727;-88
2023/06/01 05:25:15;;;;;;;7.93;3.73;;;;;;;17.01;61.29;100475.83;1439187;90;22395;-88
2023/06/01 05:27:41;;;;;;;10.20;4.17;;;;;;;17.09;61.20;100475.72;1423106;90;21426;-81
2023/06/01 05:30:10;;;;;;;13.23;4.33;;;;;;;17.18;60.76;100472.42;1440545;90;21419;-81
2023/06/01 05:32:36;;;;;;;8.17;4.07;;;;;;;17.30;61.13;100476.76;1442237;90;22969;-82
2023/06/01 05:35:06;;;;;;;5.67;3.83;;;;;;;17.36;60.87;100476.81;1417690;90;21978;-88
2023/06/01 05:41:14;;;;;;;9.17;4.80;;;;;;;17.62;60.86;100466.56;1510719;91;21571;-88
2023/06/01 05:43:40;;;;;;;7.63;3.73;;;;;;;17.79;60.63;100460.77;1365328;91;21489;-86
2023/06/01 05:46:07;;;;;;;8.70;3.87;;;;;;;17.89;60.11;100459.08;1424846;91;21546;-88
2023/06/01 05:53:31;;;;;;;11.28;4.50;;;;;;;18.14;59.47;100452.77;1416567;91;21480;-87
2023/06/01 05:55:57;;;;;;;10.07;4.20;;;;;;;18.29;59.41;100456.66;1430809;91;22450;-89
2023/06/01 05:58:23;;;;;;;6.93;4.43;;;;;;;18.42;59.03;100459.42;1428408;91;21525;-88
2023/06/01 06:00:51;;;;;;;8.13;4.43;;;;;;;18.49;58.87;100456.77;1425458;91;21414;-90
2023/06/01 06:03:17;;;;;;;10.13;4.37;;;;;;;18.55;58.94;100453.81;1379053;93;21696;-87
2023/06/01 06:05:43;;;;;;;7.77;4.17;;;;;;;18.64;58.50;100455.29;1405137;93;21430;-90
2023/06/01 06:08:11;;;;;;;11.17;4.53;;;;;;;18.76;59.16;100456.42;1438541;89;21496;-87
2023/06/01 06:10:41;;;;;;;15.90;4.70;;;;;;;18.87;59.10;100453.16;1456709;89;21466;-86
2023/06/01 06:13:08;;;;;;;8.53;4.50;;;;;;;19.03;59.06;100460.53;1454125;89;21495;-91
2023/06/01 06:15:37;;;;;;;14.50;4.33;;;;;;;19.15;58.50;100461.58;1455864;89;21613;-90
2023/06/01 06:18:05;;;;;;;10.30;4.97;;;;;;;19.29;58.73;100464.60;1457132;89;21488;-90
2023/06/01 06:20:31;;;;;;;8.47;4.63;;;;;;;19.41;57.69;100462.66;1435672;89;21628;-91
2023/06/01 06:22:57;;;;;;;12.18;5.17;;;;;;;19.48;58.27;100460.30;1437305;89;21458;-92
2023/06/01 06:25:23;;;;;;;10.10;5.37;;;;;;;19.62;58.43;100463.80;1455891;89;21551;-86
2023/06/01 06:27:51;;;;;;;8.35;5.60;;;;;;;19.73;58.40;100463.22;1435965;89;21554;-89
2023/06/01 06:30:20;;;;;;;11.40;4.42;;;;;;;19.84;57.98;100469.31;1459853;89;22411;-86
2023/06/01 06:32:46;;;;;;;12.05;4.45;;;;;;;19.93;58.04;100467.23;1457656;89;21642;-88
2023/06/01 06:35:14;;;;;;;7.40;4.45;;;;;;;19.98;57.59;100468.80;1457391;89;21531;-92
2023/06/01 06:37:41;;;;;;;11.48;4.58;;;;;;;20.05;57.46;100471.46;1402019;88;22272;-90
2023/06/01 06:40:09;;;;;;;8.78;5.10;;;;;;;20.20;57.95;100468.05;1557944;88;21377;-90
2023/06/01 06:42:35;;;;;;;14.30;4.70;;;;;;;20.40;57.90;100473.87;1398645;88;21362;-90
2023/06/01 06:45:02;;;;;;;7.97;5.08;;;;;;;20.54;56.64;100471.48;1397295;88;21370;-90
2023/06/01 06:47:28;;;;;;;13.62;4.75;;;;;;;20.59;56.03;100471.68;1396743;88;21317;-91
2023/06/01 06:49:54;;;;;;;8.28;4.55;;;;;;;20.68;56.35;100469.58;1403340;88;21451;-89
2023/06/01 06:52:20;;;;;;;10.18;5.35;;;;;;;20.77;56.33;100468.81;1397329;88;21399;-90
2023/06/01 06:54:48;;;;;;;7.83;3.85;;;;;;;20.87;56.20;100474.58;1397788;88;21525;-89
2023/06/01 06:57:16;;;;;;;10.78;4.65;;;;;;;20.94;55.30;100478.05;1410660;88;21605;-88
2023/06/01 06:59:42;;;;;;;9.05;4.33;;;;;;;21.10;56.02;100474.87;1380336;90;21318;-88
2023/06/01 07:02:11;;;;;;;10.18;4.87;;;;;;;21.31;55.10;100469.66;1403384;88;21555;-88
2023/06/01 07:04:36;;;;;;;8.70;3.85;;;;;;;21.38;53.71;100475.05;1395041;88;21376;-88
2023/06/01 07:07:04;;;;;;;10.28;4.62;;;;;;;21.48;53.48;100475.38;1379822;89;21317;-90
2023/06/01 07:09:33;;;;;;;14.53;4.95;;;;;;;21.57;53.80;100478.63;1555861;88;21569;-87
2023/06/01 07:11:59;;;;;;;9.43;4.50;;;;;;;21.72;53.05;100472.91;1402291;88;21362;-86
2023/06/01 07:14:27;;;;;;;8.48;4.80;;;;;;;21.87;53.63;100472.08;1557763;88;21440;-88
2023/06/01 07:16:56;;;;;;;8.85;3.95;;;;;;;22.01;53.63;100469.56;1394097;89;21398;-88
2023/06/01 07:19:32;;;;;;;12.45;5.47;;;;;;;22.20;51.71;100470.96;1556585;88;21588;-89
2023/06/01 07:22:00;;;;;;;12.20;4.60;;;;;;;22.27;50.87;100471.20;1394554;89;21377;-89
2023/06/01 07:26:59;;;;;;;4.70;3.72;;;;;;;22.23;49.47;100463.77;1492696;85;25758;-88
2023/06/01 07:29:32;;;;;;;8.13;4.78;;;;;;;22.24;49.09;100472.15;1464482;88;22411;-88
2023/06/01 07:31:59;;;;;;;7.17;4.20;;;;;;;22.34;49.77;100463.03;1473147;88;21415;-90
2023/06/01 07:34:30;;;;;;;10.38;4.60;;;;;;;22.47;49.38;100461.55;1436838;88;21502;-88
2023/06/01 07:36:58;;;;;;;9.90;4.17;;;;;;;22.53;48.26;100451.20;1406925;91;21599;-88
2023/06/01 07:39:27;;;;;;;8.55;4.33;;;;;;;22.67;48.63;100459.12;1440355;89;22601;-88
2023/06/01 07:42:01;;;;;;;5.67;3.98;;;;;;;22.80;47.22;100458.96;1443254;89;22330;-89
2023/06/01 07:44:35;;;;;;;7.25;3.67;;;;;;;22.89;47.19;100462.17;1437194;89;21463;-90
2023/06/01 07:47:04;;;;;;;8.53;4.10;;;;;;;23.06;47.52;100454.30;1438781;89;21611;-90
2023/06/01 07:49:38;;;;;;;12.58;4.20;;;;;;;23.28;47.01;100448.68;1435799;89;21651;-89
2023/06/01 07:52:08;;;;;;;;;;;;;;;23.33;46.00;100454.22;1438791;89;21647;-87
2023/06/01 07:54:37;;;;;;;9.83;3.83;;;;;;;23.37;45.28;100449.98;1441749;89;20982;-89
2023/06/01 07:57:05;;;;;;;13.72;4.50;;;;;;;23.43;45.49;100451.75;1439302;89;22434;-90
2023/06/01 07:59:33;;;;;;;12.30;3.95;;;;;;;23.55;46.00;100453.13;1439366;89;21607;-88
2023/06/01 08:02:01;;;;;;;17.20;4.85;;;;;;;23.68;45.69;100451.25;1442377;89;21486;-87
2023/06/01 08:04:33;;;;;;;7.05;3.87;;;;;;;23.69;44.12;100448.33;1438152;90;21439;-90
2023/06/01 08:06:57;;;;;;;11.25;4.45;;;;;;;23.79;45.16;100451.29;1440630;89;21508;-88
2023/06/01 08:09:23;;;;;;;7.58;4.10;;;;;;;23.85;44.30;100443.63;1443628;89;21573;-84
2023/06/01 08:11:50;;;;;;;8.53;3.20;;;;;;;23.91;43.83;100439.16;1439892;90;21523;-88
2023/06/01 08:14:18;;;;;;;9.75;3.85;;;;;;;23.88;43.06;100440.98;1440045;89;21450;-86
2023/06/01 08:16:45;;;;;;;12.20;3.75;;;;;;;23.98;43.79;100440.38;1441314;89;21480;-89
2023/06/01 08:19:13;;;;;;;6.35;3.55;;;;;;;24.18;44.06;100440.83;1440879;89;21529;-88
2023/06/01 08:21:41;;;;;;;10.88;4.37;;;;;;;24.31;43.32;100438.39;1418756;90;22733;-87
2023/06/01 08:24:12;;;;;;;7.80;3.55;;;;;;;24.48;42.27;100433.91;1436274;89;21421;-88
2023/06/01 08:26:35;;;;;;;7.03;3.27;;;;;;;24.60;41.74;100446.08;1436697;89;21464;-86
2023/06/01 08:29:04;;;;;;;9.00;3.55;;;;;;;24.67;40.23;100441.88;1429409;90;22851;-88
2023/06/01 08:31:30;;;;;;;10.05;3.27;;;;;;;24.76;40.92;100434.48;1429334;90;22747;-88
2023/06/01 08:33:56;;;;;;;9.10;4.00;;;;;;;24.82;40.23;100434.58;1447786;89;21603;-88
2023/06/01 08:36:22;;;;;;;9.35;3.35;;;;;;;24.83;39.79;100437.56;1450194;88;22460;-88
2023/06/01 08:38:52;;;;;;;8.95;4.17;;;;;;;24.87;40.07;100441.45;1463163;88;21405;-87
2023/06/01 08:41:32;;;;;;;7.22;3.92;;;;;;;25.00;41.28;100433.02;1464394;88;21588;-90
2023/06/01 08:44:02;;;;;;;13.65;3.70;;;;;;;25.21;40.71;100428.84;1459383;88;22248;-87
2023/06/01 08:46:30;;;;;;;;;;;;;;;25.24;40.17;100418.88;1467568;88;21449;-89
2023/06/01 08:48:59;;;;;;;6.70;4.08;;;;;;;25.31;38.14;100418.70;1472883;88;20912;-88
2023/06/01 08:51:26;;;;;;;23.22;4.87;;;;;;;25.35;37.64;100417.98;1426465;91;21465;-89
2023/06/01 08:53:56;;;;;;;5.12;3.55;;;;;;;25.34;38.37;100418.21;1472745;88;21463;-88
2023/06/01 08:56:22;;;;;;;6.15;3.27;;;;;;;25.41;37.01;100417.53;1459485;88;21451;-85
2023/06/01 08:58:53;;;;;;;7.78;3.22;;;;;;;25.45;37.90;100422.73;1457695;88;22659;-91
2023/06/01 09:01:21;;;;;;;5.30;3.60;;;;;;;25.54;38.09;100421.25;1462846;88;21404;-88
2023/06/01 09:03:52;;;;;;;5.83;3.33;;;;;;;25.60;37.89;100409.42;1464105;88;22535;-88
2023/06/01 09:06:18;;;;;;;9.23;4.05;;;;;;;25.60;37.89;100409.42;1462672;88;21456;-87
2023/06/01 09:08:45;;;;;;;6.75;3.70;;;;;;;25.74;37.32;100411.80;1444015;90;21722;-85
2023/06/01 09:11:11;;;;;;;9.55;3.12;;;;;;;25.87;36.81;100408.24;1450897;90;21442;-84
2023/06/01 09:13:40;;;;;;;9.55;3.95;;;;;;;25.97;36.83;100410.27;1450053;90;21596;-87
2023/06/01 09:16:07;;;;;;;10.15;3.47;;;;;;;26.10;36.79;100405.84;1444035;89;21515;-86
2023/06/01 09:18:33;;;;;;;5.47;3.20;;;;;;;26.12;36.83;100409.65;1451948;89;22401;-87
2023/06/01 09:21:19;;;;;;;8.60;3.67;;;;;;;26.29;37.09;100401.46;1455084;89;21435;-88
2023/06/01 09:23:43;;;;;;;4.65;2.95;;;;;;;26.44;36.71;100400.83;1454561;89;21530;-90
2023/06/01 09:26:12;;;;;;;4.30;3.10;;;;;;;26.34;33.48;100398.82;1450653;89;22727;-88
2023/06/01 09:28:56;;;;;;;4.37;3.17;;;;;;;26.33;35.30;100395.83;1452087;89;21560;-88
2023/06/01 09:31:44;;;;;;;6.72;3.17;;;;;;;26.48;36.42;100398.72;1436762;90;21480;-88
2023/06/01 09:34:20;;;;;;;6.90;2.85;;;;;;;26.59;35.29;100390.73;1449242;89;21405;-87
2023/06/01 09:36:53;;;;;;;9.80;3.58;;;;;;;26.66;34.25;100400.84;1444167;90;21478;-91
2023/06/01 09:39:24;;;;;;;6.75;3.42;;;;;;;26.70;35.59;100391.10;1450419;90;21575;-89
2023/06/01 09:41:56;;;;;;;16.32;3.90;;;;;;;26.90;35.90;100392.70;1448140;89;21457;-89
2023/06/01 09:44:35;;;;;;;5.33;2.95;;;;;;;27.06;35.39;100395.00;1453671;89;21611;-90
2023/06/01 09:47:12;;;;;;;3.35;2.83;;;;;;;27.19;35.08;100389.19;1457147;89;21405;-90
2023/06/01 09:49:44;;;;;;;6.53;3.35;;;;;;;27.13;31.02;100385.27;1448063;89;21449;-89
2023/06/01 09:52:14;;;;;;;6.67;3.08;;;;;;;27.05;32.84;100389.84;1451020;89;22443;-89
2023/06/01 09:54:46;;;;;;;9.40;3.35;;;;;;;27.14;33.67;100388.29;1450740;89;21434;-89
2023/06/01 09:57:13;;;;;;;4.95;3.50;;;;;;;27.26;33.59;100384.89;1449394;89;21515;-87
2023/06/01 09:59:44;;;;;;;12.20;3.40;;;;;;;27.43;33.36;100386.92;1450829;89;22328;-89
2023/06/01 10:02:21;;;;;;;5.37;2.72;;;;;;;27.61;32.54;100378.08;1447092;89;22183;-89
2023/06/01 10:04:57;;;;;;;4.42;3.05;;;;;;;27.56;30.34;100380.75;1457986;89;21383;-89
2023/06/01 10:07:25;;;;;;;7.00;3.47;;;;;;;27.68;30.18;100371.34;1452388;89;21598;-90
2023/06/01 10:09:55;;;;;;;10.32;2.90;;;;;;;27.79;31.37;100376.84;1453352;89;21523;-90
2023/06/01 10:12:22;;;;;;;;;;;;;;;27.93;31.83;100371.77;1453139;90;21910;-90
2023/06/01 10:14:50;;;;;;;7.87;3.22;;;;;;;28.10;31.55;100372.39;1449773;90;20998;-89
2023/06/01 10:17:17;;;;;;;6.58;2.65;;;;;;;28.18;31.76;100369.17;1443999;90;21427;-88
2023/06/01 10:19:44;;;;;;;5.35;3.17;;;;;;;28.38;31.93;100374.42;1456615;90;22432;-88
2023/06/01 10:22:12;;;;;;;6.42;2.50;;;;;;;28.51;31.49;100368.48;1459880;90;21428;-88
2023/06/01 10:24:41;;;;;;;5.62;2.42;;;;;;;28.54;30.41;100374.75;1451043;89;21464;-88
2023/06/01 10:27:28;;;;;;;7.78;2.75;;;;;;;28.67;30.50;100374.80;1452622;89;21656;-88
2023/06/01 10:29:55;;;;;;;8.83;3.27;;;;;;;28.77;30.34;100374.28;1453577;89;21523;-89
2023/06/01 10:32:51;;;;;;;8.00;2.80;;;;;;;28.85;29.89;100372.91;1454547;90;21640;-89
2023/06/01 10:35:32;;;;;;;6.55;2.42;;;;;;;28.94;29.17;100367.74;1444111;89;21640;-89
2023/06/01 10:38:13;;;;;;;4.70;2.30;;;;;;;29.01;28.85;100365.58;1460181;89;22010;-89
2023/06/01 10:40:43;;;;;;;7.90;2.62;;;;;;;29.03;28.43;100366.14;1453312;88;21486;-90
2023/06/01 10:43:40;;;;;;;7.33;3.30;;;;;;;28.98;28.05;100360.68;1458369;88;21465;-92
2023/06/01 10:46:35;;;;;;;5.50;2.98;;;;;;;29.11;29.02;100353.89;1435623;89;21456;-92
2023/06/01 10:49:04;;;;;;;3.62;2.60;;;;;;;29.25;28.80;100352.25;1453643;89;21552;-90
2023/06/01 10:55:31;;;;;;;3.90;2.85;;;;;;;29.23;28.18;100347.09;1454946;90;21464;-90
2023/06/01 10:58:25;;;;;;;9.60;3.58;;;;;;;29.21;29.37;100339.73;1404356;91;22397;-89
2023/06/01 11:00:51;;;;;;;7.12;2.72;;;;;;;29.26;28.97;100336.71;1452010;89;21419;-85
2023/06/01 11:03:40;;;;;;;10.58;2.80;;;;;;;29.23;28.50;100333.47;1456225;89;21538;-90
2023/06/01 11:06:25;;;;;;;4.80;3.22;;;;;;;29.03;27.37;100327.19;1457926;89;21611;-89
2023/06/01 11:08:55;;;;;;;5.12;3.12;;;;;;;29.03;28.16;100325.27;1451391;90;21382;-87
2023/06/01 11:11:22;;;;;;;7.58;2.87;;;;;;;29.13;28.60;100325.28;1452535;90;22478;-88
2023/06/01 11:14:11;;;;;;;11.70;3.27;;;;;;;29.18;28.06;100318.48;1458392;90;21478;-89
2023/06/01 11:16:37;;;;;;;6.17;3.40;;;;;;;29.08;28.36;100319.83;1454059;89;21707;-89
2023/06/01 11:19:06;;;;;;;5.42;2.17;;;;;;;29.24;28.80;100310.56;1449600;89;21493;-89
2023/06/01 11:21:40;;;;;;;4.30;3.10;;;;;;;29.46;28.85;100309.42;1449125;89;21559;-89
2023/06/01 11:24:14;;;;;;;6.92;2.55;;;;;;;29.50;28.16;100307.80;1453686;90;21439;-89
2023/06/01 11:26:47;;;;;;;11.97;3.08;;;;;;;29.63;28.67;100305.05;1454711;89;21485;-86
2023/06/01 11:29:21;;;;;;;6.53;2.85;;;;;;;29.75;26.36;100297.39;1461896;89;21559;-89
2023/06/01 11:31:51;;;;;;;6.45;2.92;;;;;;;29.19;26.36;100298.85;1436856;91;21474;-83
2023/06/01 11:34:20;;;;;;;10.48;3.35;;;;;;;28.93;27.45;100298.02;1431454;91;21577;-82
2023/06/01 11:36:49;;;;;;;5.35;2.95;;;;;;;28.79;27.13;100298.55;1382129;88;21552;-82
2023/06/01 11:39:24;;;;;;;5.50;2.72;;;;;;;28.89;27.78;100296.95;1365113;91;21437;-83
2023/06/01 11:41:54;;;;;;;18.42;2.70;;;;;;;28.93;28.11;100295.30;1527036;89;21482;-82
2023/06/01 11:44:22;;;;;;;7.97;2.80;;;;;;;28.86;26.41;100292.86;1525220;89;22315;-82
2023/06/01 11:46:56;;;;;;;7.90;2.98;;;;;;;28.77;27.44;100296.67;1459120;89;21477;-82
2023/06/01 11:49:23;;;;;;;4.90;2.55;;;;;;;28.65;28.06;100293.92;1449966;89;21464;-83
2023/06/01 11:55:53;;;;;;;7.20;2.80;;;;;;;28.76;27.93;100281.95;1541579;89;21352;-82
2023/06/01 11:58:29;;;;;;;5.97;2.55;;;;;;;29.00;28.02;100275.39;1541705;89;22228;-84
2023/06/01 12:00:57;;;;;;;7.58;2.12;;;;;;;28.95;25.57;100267.25;1541252;88;21338;-82